Anajatuba, Brazil
Current Conditions -  °F | °C
As of 1:00 PM on Thursday 18 Dec 2014 (Local Time) from SBSL Reporting Station
Broken Clouds Broken Clouds  
Wind Chill: 88°   Ceiling: 1700
Heat Index: 93°   Visibility: 6mi
Dew Point: 70°   Wind: 18mph
Humidity: 55%   Direction: 30°NNE
Pressure: 29.85"   Gusts: NA
Location:  3.26°S, 44.62°W
Report Text: SBSL 181600Z 03016KT 9999 BKN017 FEW020TCU 31/21 Q1011
Loading
Personal Weather Stations






























Interactive Weather Map New forecast layout! Learn more

10-Day Weather Forecast

Advertisements
Track Severe Weather on mobile